Flight Track Log - Related Links

Times and Time Zones

All times are in EDT time to prevent confusion due to time zone crossing. See the NKS216 flight status page for this flight to view local times or setup timezone preferences in your user account.

Time Position Orientation Groundspeed Altitude Reporting Facility
EDT Latitude Longitude Course Direction KTS MPH feet Rate Location/Type
Sun 02:58:09 AM 33.9460 -118.4430 257° West 165 190 1,000  Level FlightAware ADS-B
Sun 02:58:17 AM 33.9440 -118.4500 251° West 163 188 1,300 2,000 Climbing FlightAware ADS-B
Sun 02:58:21 AM 33.9420 -118.4540 239° Southwest 165 190 1,400 1,500 Climbing FlightAware ADS-B
Sun 02:58:29 AM 33.9390 -118.4580 228° Southwest 169 194 1,600 1,667 Climbing FlightAware ADS-B
Sun 02:58:39 AM 33.9330 -118.4660 228° Southwest 179 206 1,900 1,333 Climbing FlightAware ADS-B
Sun 02:59:05 AM 33.9160 -118.4860 224° Southwest 209 241 2,400 1,105 Climbing FlightAware ADS-B
Sun 02:59:17 AM 33.9080 -118.4950 223° Southwest 225 259 2,600 900 Climbing FlightAware ADS-B
Sun 02:59:25 AM 33.9010 -118.5030 223° Southwest 243 280 2,700 1,125 Climbing FlightAware ADS-B
Sun 02:59:33 AM 33.8930 -118.5090 212° Southwest 257 296 2,900 1,500 Climbing FlightAware ADS-B
Sun 02:59:37 AM 33.8880 -118.5110 198° South 263 303 3,000 1,714 Climbing FlightAware ADS-B
Sun 02:59:47 AM 33.8740 -118.5140 190° South 274 315 3,300 2,600 Climbing FlightAware ADS-B
Sun 03:00:07 AM 33.8530 -118.5160 185° South 275 316 4,300 3,545 Climbing FlightAware ADS-B
Sun 03:00:31 AM 33.8190 -118.5170 181° South 271 312 5,900 3,500 Climbing FlightAware ADS-B
Sun 03:00:43 AM 33.8040 -118.5170 180° South 273 314 6,400 3,000 Climbing FlightAware ADS-B
Sun 03:01:03 AM 33.7790 -118.5180 182° South 272 313 7,500 3,000 Climbing FlightAware ADS-B
Sun 03:01:17 AM 33.7630 -118.5180 180° South 273 314 8,100 2,500 Climbing FlightAware ADS-B
Sun 03:01:39 AM 33.7370 -118.5190 182° South 278 320 9,000 2,571 Climbing FlightAware ADS-B
Sun 03:02:06 AM 33.7010 -118.5080 166° South 287 330 10,200 2,182 Climbing FlightAware ADS-B
Sun 03:02:23 AM 33.6870 -118.4880 130° Southeast 305 351 10,600 1,347 Climbing FlightAware ADS-B
Sun 03:02:55 AM 33.6700 -118.4330 110° East 339 390 11,300 1,147 Climbing FlightAware ADS-B
Sun 03:03:31 AM 33.6500 -118.3660 110° East 372 428 11,900 941 Climbing FlightAware ADS-B
Sun 03:03:46 AM 33.6440 -118.3330 102° East 390 449 12,100 1,256 Climbing FlightAware ADS-B
Sun 03:04:14 AM 33.6440 -118.2940 90° East 400 460 12,800 1,853 Climbing FlightAware ADS-B
Sun 03:04:54 AM 33.6450 -118.1880 89° East 408 470 14,200 2,053 Climbing FlightAware ADS-B
Sun 03:05:30 AM 33.6450 -118.1000 90° East 417 480 15,400 2,060 Climbing FlightAware ADS-B
Sun 03:06:01 AM 33.6450 -118.0300 90° East 416 479 16,500 1,938 Climbing FlightAware ADS-B
Sun 03:06:35 AM 33.6450 -117.9490 90° East 424 488 17,500 1,760 Climbing FlightAware ADS-B
Sun 03:07:16 AM 33.6440 -117.8520 91° East 432 497 18,700 1,737 Climbing FlightAware ADS-B
Sun 03:07:51 AM 33.6440 -117.7640 90° East 439 505 19,700 1,569 Climbing FlightAware ADS-B
Sun 03:08:21 AM 33.6440 -117.6920 90° East 447 514 20,400 1,412 Climbing FlightAware ADS-B
Sun 03:08:59 AM 33.6430 -117.6000 91° East 454 522 21,300 1,459 Climbing FlightAware ADS-B
Sun 03:09:35 AM 33.6430 -117.5050 90° East 461 531 22,200 1,333 Climbing FlightAware ADS-B
Sun 03:10:11 AM 33.6420 -117.4170 91° East 468 539 22,900 1,130 Climbing FlightAware ADS-B
Sun 03:10:44 AM 33.6350 -117.3270 95° East 471 542 23,500 1,059 Climbing FlightAware ADS-B
Sun 03:11:19 AM 33.6240 -117.2340 98° East 479 551 24,100 1,151 Climbing FlightAware ADS-B
Sun 03:11:57 AM 33.6130 -117.1440 98° East 481 554 24,900 1,099 Climbing FlightAware ADS-B
Sun 03:12:30 AM 33.6020 -117.0510 98° East 487 560 25,400 909 Climbing FlightAware ADS-B
Sun 03:13:03 AM 33.5910 -116.9610 98° East 491 565 25,900 1,183 Climbing FlightAware ADS-B
Sun 03:13:41 AM 33.5790 -116.8570 98° East 488 562 26,800 1,371 Climbing FlightAware ADS-B
Sun 03:14:13 AM 33.5680 -116.7700 99° East 487 560 27,500 1,235 Climbing FlightAware ADS-B
Sun 03:14:49 AM 33.5570 -116.6750 98° East 487 560 28,200 1,250 Climbing FlightAware ADS-B
Sun 03:15:25 AM 33.5450 -116.5800 99° East 485 558 29,000 1,333 Climbing FlightAware ADS-B
Sun 03:16:01 AM 33.5330 -116.4840 99° East 485 558 29,800 1,455 Climbing FlightAware ADS-B
Sun 03:16:31 AM 33.5230 -116.4060 99° East 480 552 30,600 1,324 Climbing FlightAware ADS-B
Sun 03:17:09 AM 33.5110 -116.3110 99° East 481 554 31,300 1,184 Climbing FlightAware ADS-B
Sun 03:17:47 AM 33.4980 -116.2070 98° East 479 551 32,100 1,371 Climbing FlightAware ADS-B
Sun 03:18:19 AM 33.4870 -116.1230 99° East 474 545 32,900 1,324 Climbing FlightAware ADS-B
Sun 03:18:55 AM 33.4750 -116.0290 99° East 474 545 33,600 1,043 Climbing FlightAware ADS-B
Sun 03:19:28 AM 33.4650 -115.9520 99° East 474 545 34,100 1,059 Climbing FlightAware ADS-B
Sun 03:20:03 AM 33.4530 -115.8610 99° East 473 544 34,800 771 Climbing FlightAware ADS-B
Sun 03:20:38 AM 33.4420 -115.7710 98° East 468 539 35,000 171 Climbing FlightAware ADS-B
Sun 03:21:13 AM 33.4300 -115.6860 100° East 470 541 35,000 429 Level FlightAware ADS-B
Sun 03:21:48 AM 33.4180 -115.5920 99° East 469 540 35,500 943 Climbing FlightAware ADS-B
Sun 03:22:23 AM 33.4060 -115.5040 99° East 468 539 36,100 943 Climbing FlightAware ADS-B
Sun 03:22:58 AM 33.3940 -115.4140 99° East 468 539 36,600 771 Climbing FlightAware ADS-B
Sun 03:23:33 AM 33.3830 -115.3250 98° East 463 533 37,000 343 Climbing FlightAware ADS-B
Sun 03:24:08 AM 33.3710 -115.2380 99° East 462 532 37,000  Level FlightAware ADS-B
Sun 03:24:45 AM 33.3590 -115.1480 99° East 463 533 37,000  Level FlightAware ADS-B
Sun 03:25:18 AM 33.3470 -115.0640 100° East 463 533 37,000  Level FlightAware ADS-B
Sun 03:25:53 AM 33.3350 -114.9730 99° East 463 533 37,000  Level FlightAware ADS-B
Sun 03:26:28 AM 33.3220 -114.8840 100° East 463 533 37,000  Level FlightAware ADS-B
Sun 03:27:03 AM 33.3100 -114.7970 99° East 463 533 37,000  Level FlightAware ADS-B
Sun 03:27:38 AM 33.2990 -114.7170 99° East 463 533 37,000  Level FlightAware ADS-B
Sun 03:28:13 AM 33.2860 -114.6230 99° East 464 534 37,000  Level FlightAware ADS-B
Sun 03:28:58 AM 33.2690 -114.5050 100° East 464 534 37,000  Level FlightAware ADS-B
Sun 03:29:33 AM 33.2590 -114.4300 99° East 466 536 37,000  Level FlightAware ADS-B
Sun 03:30:05 AM 33.2440 -114.3270 100° East 466 536 37,000  Level FlightAware ADS-B
Sun 03:30:41 AM 33.2310 -114.2350 100° East 466 536 37,000  Level FlightAware ADS-B
Sun 03:31:17 AM 33.2180 -114.1430 100° East 467 537 37,000  Level FlightAware ADS-B
Sun 03:31:54 AM 33.2040 -114.0520 100° East 468 539 37,000  Level FlightAware ADS-B
Sun 03:32:27 AM 33.1920 -113.9670 100° East 469 540 37,000  Level FlightAware ADS-B
Sun 03:33:12 AM 33.1770 -113.8620 100° East 470 541 37,000  Level FlightAware ADS-B
Sun 03:33:48 AM 33.1670 -113.7830 99° East 470 541 37,000  Level FlightAware ADS-B
Sun 03:34:25 AM 33.1560 -113.7020 99° East 470 541 37,000  Level FlightAware ADS-B
Sun 03:35:02 AM 33.1350 -113.5750 101° East 470 541 37,000  Level FlightAware ADS-B
Sun 03:35:36 AM 33.1290 -113.4820 94° East 471 542 37,000  Level FlightAware ADS-B
Sun 03:36:20 AM 33.1220 -113.3700 94° East 471 542 37,000  Level FlightAware ADS-B
Sun 03:37:00 AM 33.1160 -113.2660 94° East 471 542 37,000  Level FlightAware ADS-B
Sun 03:37:35 AM 33.1110 -113.1760 94° East 472 543 37,000  Level FlightAware ADS-B
Sun 03:38:11 AM 33.1050 -113.0840 94° East 471 542 37,000  Level FlightAware ADS-B
Sun 03:38:45 AM 33.1000 -112.9960 94° East 470 541 37,000  Level FlightAware ADS-B
Sun 03:39:19 AM 33.0940 -112.9050 94° East 469 540 37,000  Level FlightAware ADS-B
Sun 03:39:57 AM 33.0880 -112.8080 94° East 468 539 37,000  Level FlightAware ADS-B
Sun 03:40:33 AM 33.0820 -112.7160 94° East 466 536 37,000  Level FlightAware ADS-B
Sun 03:41:05 AM 33.0700 -112.6370 100° East 462 532 37,000  Level FlightAware ADS-B
Sun 03:41:41 AM 33.0550 -112.5470 101° East 462 532 37,000  Level FlightAware ADS-B
Sun 03:42:15 AM 33.0410 -112.4620 101° East 462 532 37,000  Level FlightAware ADS-B
Sun 03:42:50 AM 33.0260 -112.3750 102° East 463 533 37,000  Level FlightAware ADS-B
Sun 03:43:27 AM 33.0100 -112.2810 101° East 464 534 37,000  Level FlightAware ADS-B
Sun 03:44:03 AM 32.9940 -112.1930 102° East 463 533 37,000  Level FlightAware ADS-B
Sun 03:44:35 AM 32.9800 -112.1110 101° East 463 533 37,000  Level FlightAware ADS-B
Sun 03:45:12 AM 32.9640 -112.0200 102° East 464 534 37,000  Level FlightAware ADS-B
Sun 03:45:48 AM 32.9480 -111.9300 102° East 465 535 37,000  Level FlightAware ADS-B
Sun 03:46:20 AM 32.9340 -111.8480 101° East 464 534 37,000  Level FlightAware ADS-B
Sun 03:46:52 AM 32.9200 -111.7690 102° East 465 535 37,000  Level FlightAware ADS-B
Sun 03:47:29 AM 32.9040 -111.6780 102° East 463 533 37,000  Level FlightAware ADS-B
Sun 03:48:04 AM 32.8880 -111.5920 102° East 460 529 37,000  Level FlightAware ADS-B
Sun 03:48:40 AM 32.8720 -111.5010 102° East 459 528 37,000  Level FlightAware ADS-B
Sun 03:49:16 AM 32.8560 -111.4130 102° East 460 529 37,000  Level FlightAware ADS-B
Sun 03:49:48 AM 32.8420 -111.3360 102° East 462 532 37,000  Level FlightAware ADS-B
Sun 03:50:26 AM 32.8250 -111.2400 102° East 465 535 37,000  Level FlightAware ADS-B
Sun 03:51:02 AM 32.8100 -111.1550 102° East 468 539 37,000  Level FlightAware ADS-B
Sun 03:51:34 AM 32.7940 -111.0690 102° East 469 540 37,000  Level FlightAware ADS-B
Sun 03:52:09 AM 32.7800 -110.9920 102° East 471 542 37,000  Level FlightAware ADS-B
Sun 03:52:44 AM 32.7610 -110.8920 103° East 472 543 37,000  Level FlightAware ADS-B
Sun 03:53:19 AM 32.7450 -110.8040 102° East 472 543 37,000  Level FlightAware ADS-B
Sun 03:53:54 AM 32.7280 -110.7140 103° East 474 545 37,000  Level FlightAware ADS-B
Sun 03:54:29 AM 32.7120 -110.6290 103° East 474 545 37,000  Level FlightAware ADS-B
Sun 03:55:04 AM 32.6960 -110.5400 102° East 473 544 37,000  Level FlightAware ADS-B
Sun 03:55:40 AM 32.6790 -110.4530 103° East 471 542 37,000  Level FlightAware ADS-B
Sun 03:56:16 AM 32.6620 -110.3610 102° East 471 542 37,000  Level FlightAware ADS-B
Sun 03:56:53 AM 32.6440 -110.2650 103° East 472 543 37,000  Level FlightAware ADS-B
Sun 03:57:25 AM 32.6280 -110.1830 103° East 471 542 37,000  Level FlightAware ADS-B
Sun 03:57:59 AM 32.6120 -110.0970 102° East 471 542 37,000  Level FlightAware ADS-B
Sun 03:58:36 AM 32.5930 -110.0020 103° East 469 540 37,000  Level FlightAware ADS-B
Sun 03:59:12 AM 32.5760 -109.9140 103° East 467 537 37,000  Level FlightAware ADS-B
Sun 03:59:44 AM 32.5610 -109.8330 102° East 464 534 37,000  Level FlightAware ADS-B
Sun 04:00:20 AM 32.5440 -109.7440 103° East 464 534 37,000 -82 Level FlightAware ADS-B
Sun 04:00:57 AM 32.5260 -109.6540 103° East 465 535 36,900 -86 Descending FlightAware ADS-B
Sun 04:01:30 AM 32.5100 -109.5710 103° East 466 536 36,900 90 Level FlightAware ADS-B
Sun 04:02:04 AM 32.4930 -109.4860 103° East 467 537 37,000 83 Climbing FlightAware ADS-B
Sun 04:02:42 AM 32.4740 -109.3930 104° East 467 537 37,000  Level FlightAware ADS-B
Sun 04:03:16 AM 32.4580 -109.3090 103° East 467 537 37,000  Level FlightAware ADS-B
Sun 04:03:52 AM 32.4400 -109.2180 103° East 466 536 37,000  Level FlightAware ADS-B
Sun 04:04:28 AM 32.4220 -109.1310 104° East 466 536 37,000  Level FlightAware ADS-B
Sun 04:05:00 AM 32.4060 -109.0510 103° East 465 535 37,000  Level FlightAware ADS-B
Sun 04:05:36 AM 32.3880 -108.9600 103° East 465 535 37,000 -83 Level FlightAware ADS-B
Sun 04:06:12 AM 32.3700 -108.8730 104° East 467 537 36,900  Descending FlightAware ADS-B
Sun 04:06:48 AM 32.3520 -108.7820 103° East 469 540 37,000 71 Climbing FlightAware ADS-B
Sun 04:07:36 AM 32.3280 -108.6650 104° East 472 543 37,000  Level FlightAware ADS-B
Sun 04:08:15 AM 32.3090 -108.5740 104° East 474 545 37,000  Level FlightAware ADS-B
Sun 04:09:05 AM 32.2820 -108.4390 103° East 475 547 37,000  Level FlightAware ADS-B
Sun 04:09:40 AM 32.2640 -108.3560 104° East 474 545 37,000  Level FlightAware ADS-B
Sun 04:10:15 AM 32.2480 -108.2720 103° East 473 544 37,000  Level FlightAware ADS-B
Sun 04:10:55 AM 32.2240 -108.1620 104° East 472 543 37,000  Level FlightAware ADS-B
Sun 04:11:31 AM 32.2080 -108.0830 103° East 470 541 37,000  Level FlightAware ADS-B
Sun 04:12:01 AM 32.1910 -108.0030 104° East 470 541 37,000  Level FlightAware ADS-B
Sun 04:12:42 AM 32.1740 -107.9160 103° East 470 541 37,000  Level FlightAware ADS-B
Sun 04:13:18 AM 32.1590 -107.8390 103° East 470 541 37,000  Level FlightAware ADS-B
Sun 04:13:54 AM 32.1440 -107.7630 103° East 470 541 37,000  Level FlightAware ADS-B
Sun 04:14:30 AM 32.1290 -107.6860 103° East 470 541 37,000  Level FlightAware ADS-B
Sun 04:15:06 AM 32.1140 -107.6100 103° East 470 541 37,000  Level FlightAware ADS-B
Sun 04:15:40 AM 32.1000 -107.5370 103° East 470 541 37,000  Level FlightAware ADS-B
Sun 04:16:16 AM 32.0850 -107.4610 103° East 470 541 37,000  Level FlightAware ADS-B
Sun 04:16:52 AM 32.0700 -107.3840 103° East 470 541 37,000  Level FlightAware ADS-B
Sun 04:17:28 AM 32.0550 -107.3080 103° East 470 541 37,000  Level FlightAware ADS-B
Sun 04:18:04 AM 32.0400 -107.2310 103° East 470 541 37,000  Level FlightAware ADS-B
Sun 04:18:39 AM 31.9760 -107.0040 108° East 480 552 37,000  Level FlightAware ADS-B
Sun 04:19:15 AM 31.9570 -106.9140 104° East 480 552 37,000  Level FlightAware ADS-B
Sun 04:19:50 AM 31.9370 -106.8250 105° East 480 552 37,000  Level FlightAware ADS-B
Sun 04:20:25 AM 31.9170 -106.7360 105° East 481 554 37,000  Level FlightAware ADS-B
Sun 04:21:05 AM 31.8950 -106.6360 105° East 482 555 37,000  Level FlightAware ADS-B
Sun 04:21:41 AM 31.8770 -106.5550 105° East 482 555 37,000  Level FlightAware ADS-B
Sun 04:22:15 AM 31.8560 -106.4600 105° East 482 555 37,000  Level FlightAware ADS-B
Sun 04:22:51 AM 31.8350 -106.3680 105° East 480 552 37,000  Level FlightAware ADS-B
Sun 04:23:26 AM 31.8160 -106.2780 104° East 479 551 37,000  Level FlightAware ADS-B
Sun 04:24:01 AM 31.8050 -106.1890 98° East 477 549 37,000  Level FlightAware ADS-B
Sun 04:24:36 AM 31.7950 -106.1020 98° East 476 548 37,000  Level FlightAware ADS-B
Sun 04:25:11 AM 31.7840 -106.0110 98° East 475 547 37,000  Level FlightAware ADS-B
Sun 04:25:53 AM 31.7710 -105.9100 99° East 476 548 37,000  Level FlightAware ADS-B
Sun 04:26:31 AM 31.7580 -105.8090 99° East 476 548 37,000  Level FlightAware ADS-B
Sun 04:27:09 AM 31.7480 -105.7270 98° East 476 548 37,000  Level FlightAware ADS-B
Sun 04:27:45 AM 31.7390 -105.6480 98° East 476 548 37,000  Level FlightAware ADS-B
Sun 04:28:21 AM 31.7300 -105.5700 98° East 476 548 37,000  Level FlightAware ADS-B
Sun 04:28:57 AM 31.7200 -105.4910 98° East 476 548 37,000  Level FlightAware ADS-B
Sun 04:29:33 AM 31.7110 -105.4130 98° East 476 548 37,000  Level FlightAware ADS-B
Sun 04:30:10 AM 31.7010 -105.3320 98° East 476 548 37,000  Level FlightAware ADS-B
Sun 04:30:46 AM 31.6920 -105.2540 98° East 476 548 37,000  Level FlightAware ADS-B
Sun 04:31:21 AM 31.6620 -105.0640 100° East 478 550 37,000  Level FlightAware ADS-B
Sun 04:31:55 AM 31.6500 -104.9750 99° East 477 549 37,000  Level FlightAware ADS-B
Sun 04:32:39 AM 31.6380 -104.8740 98° East 477 549 37,000  Level FlightAware ADS-B
Sun 04:33:13 AM 31.6240 -104.7740 99° East 476 548 37,000  Level FlightAware ADS-B
Sun 04:33:57 AM 31.6080 -104.6630 100° East 477 549 37,000  Level FlightAware ADS-B
Sun 04:34:33 AM 31.5960 -104.5710 99° East 477 549 37,000  Level FlightAware ADS-B
Sun 04:35:05 AM 31.5850 -104.4890 99° East 477 549 37,000  Level FlightAware ADS-B
Sun 04:35:36 AM 31.5740 -104.4110 99° East 479 551 37,000  Level FlightAware ADS-B
Sun 04:36:19 AM 31.5610 -104.3130 99° East 478 550 37,000  Level FlightAware ADS-B
Sun 04:36:56 AM 31.5480 -104.2190 99° East 478 550 37,000  Level FlightAware ADS-B
Sun 04:37:32 AM 31.5370 -104.1410 99° East 478 550 37,000  Level FlightAware ADS-B
Sun 04:38:08 AM 31.5270 -104.0620 98° East 478 550 37,000  Level FlightAware ADS-B
Sun 04:38:44 AM 31.5160 -103.9840 99° East 478 550 37,000  Level FlightAware ADS-B
Sun 04:39:20 AM 31.5050 -103.9060 99° East 478 550 37,000  Level FlightAware ADS-B
Sun 04:39:57 AM 31.4950 -103.8250 98° East 478 550 37,000  Level FlightAware ADS-B
Sun 04:40:33 AM 31.4840 -103.7470 99° East 478 550 37,000  Level FlightAware ADS-B
Sun 04:41:09 AM 31.4730 -103.6680 99° East 478 550 37,000  Level FlightAware ADS-B
Sun 04:41:45 AM 31.4630 -103.5900 99° East 478 550 37,000  Level FlightAware ADS-B
Sun 04:42:21 AM 31.4520 -103.5120 99° East 478 550 37,000  Level FlightAware ADS-B
Sun 04:42:58 AM 31.4410 -103.4310 99° East 478 550 37,000  Level FlightAware ADS-B
Sun 04:43:35 AM 31.4300 -103.3510 99° East 478 550 37,000  Level FlightAware ADS-B
Sun 04:44:11 AM 31.4200 -103.2720 98° East 478 550 37,000  Level FlightAware ADS-B
Sun 04:44:48 AM 31.4090 -103.1920 99° East 478 550 37,000  Level FlightAware ADS-B
Sun 04:45:24 AM 31.3980 -103.1130 99° East 478 550 37,000  Level FlightAware ADS-B
Sun 04:46:01 AM 31.3870 -103.0330 99° East 478 550 37,000  Level FlightAware ADS-B
Sun 04:46:58 AM 31.3267 -102.7125 99° East 464 534 37,000  Level Houston Center
Sun 04:47:58 AM 31.3044 -102.5633 100° East 466 536 37,000  Level Houston Center
Sun 04:48:59 AM 31.2814 -102.4178 100° East 461 531 37,000  Level Houston Center
Sun 04:49:59 AM 31.2611 -102.2719 99° East 472 543 37,000  Level Houston Center
Sun 04:50:59 AM 31.2381 -102.1236 100° East 475 547 37,000 -50 Level Houston Center
Sun 04:51:59 AM 31.2147 -101.9753 100° East 472 543 36,900  Descending Houston Center
Sun 04:52:59 AM 31.1906 -101.8275 101° East 467 537 37,000 50 Climbing Houston Center
Sun 04:54:00 AM 31.1669 -101.6769 100° East 471 542 37,000  Level Houston Center
Sun 04:59:44 AM 31.0220 -100.7910 100° East 467 537 37,000  Level FlightAware ADS-B
Sun 05:00:20 AM 31.0070 -100.7020 101° East 467 537 37,000  Level FlightAware ADS-B
Sun 05:00:56 AM 30.9930 -100.6170 101° East 467 537 37,000  Level FlightAware ADS-B
Sun 05:01:29 AM 30.9810 -100.5460 101° East 467 537 37,000  Level FlightAware ADS-B
Sun 05:02:04 AM 30.9640 -100.4490 102° East 469 540 37,000  Level FlightAware ADS-B
Sun 05:02:37 AM 30.9520 -100.3750 101° East 470 541 37,000  Level FlightAware ADS-B
Sun 05:03:13 AM 30.9390 -100.2990 101° East 470 541 37,000  Level FlightAware ADS-B
Sun 05:03:49 AM 30.9260 -100.2230 101° East 470 541 37,000  Level FlightAware ADS-B
Sun 05:04:25 AM 30.9140 -100.1470 100° East 470 541 37,000  Level FlightAware ADS-B
Sun 05:04:59 AM 30.8890 -100.0110 102° East 471 542 37,000  Level FlightAware ADS-B
Sun 05:05:38 AM 30.8750 -99.9270 101° East 471 542 37,000  Level FlightAware ADS-B
Sun 05:06:14 AM 30.8620 -99.8500 101° East 471 542 37,000  Level FlightAware ADS-B
Sun 05:06:50 AM 30.8490 -99.7740 101° East 471 542 37,000  Level FlightAware ADS-B
Sun 05:07:25 AM 30.8260 -99.6540 103° East 468 539 37,000  Level FlightAware ADS-B
Sun 05:08:02 AM 30.8100 -99.5640 102° East 469 540 37,000  Level FlightAware ADS-B
Sun 05:08:31 AM 30.7970 -99.4910 102° East 469 540 37,000  Level FlightAware ADS-B
Sun 05:09:09 AM 30.7800 -99.3960 102° East 469 540 37,000  Level FlightAware ADS-B
Sun 05:09:45 AM 30.7650 -99.3100 101° East 469 540 37,000  Level FlightAware ADS-B
Sun 05:10:22 AM 30.7480 -99.2160 102° East 469 540 37,000  Level FlightAware ADS-B
Sun 05:10:54 AM 30.7340 -99.1380 102° East 469 540 37,000  Level FlightAware ADS-B
Sun 05:11:31 AM 30.7170 -99.0480 102° East 470 541 37,000  Level FlightAware ADS-B
Sun 05:12:16 AM 30.6980 -98.9450 102° East 469 540 37,000  Level FlightAware ADS-B
Sun 05:12:46 AM 30.6830 -98.8620 102° East 470 541 37,000  Level FlightAware ADS-B
Sun 05:13:32 AM 30.6650 -98.7580 101° East 469 540 37,000  Level FlightAware ADS-B
Sun 05:14:09 AM 30.6456 -98.6566 103° East 468 539 37,000  Level FlightAware ADS-B
Sun 05:14:39 AM 30.6319 -98.5827 102° East 468 539 37,000  Level FlightAware ADS-B
Sun 05:15:13 AM 30.6164 -98.4991 102° East 470 541 37,000  Level FlightAware ADS-B
Sun 05:15:44 AM 30.6020 -98.4222 102° East 472 543 37,000  Level FlightAware ADS-B
Sun 05:15:58 AM 30.5954 -98.3874 102° East 470 541 37,000  Level FlightAware ADS-B
Sun 05:16:15 AM 30.5873 -98.3445 102° East 473 544 37,000  Level FlightAware ADS-B
Sun 05:16:40 AM 30.5757 -98.2830 102° East 473 544 37,000  Level FlightAware ADS-B
Sun 05:16:45 AM 30.5733 -98.2702 102° East 474 545 37,000  Level FlightAware ADS-B
Sun 05:17:13 AM 30.5605 -98.2026 102° East 474 545 37,000  Level FlightAware ADS-B
Sun 05:17:16 AM 30.5590 -98.1949 103° East 474 545 37,000  Level FlightAware ADS-B
Sun 05:17:46 AM 30.5447 -98.1192 102° East 475 547 37,000  Level FlightAware ADS-B
Sun 05:18:17 AM 30.5304 -98.0440 102° East 475 547 37,000  Level FlightAware ADS-B
Sun 05:18:47 AM 30.5161 -97.9696 103° East 474 545 37,000 100 Level FlightAware ADS-B
Sun 05:19:17 AM 30.5018 -97.8951 103° East 471 542 37,100  Climbing FlightAware ADS-B
Sun 05:19:47 AM 30.4876 -97.8208 102° East 469 540 37,000 -100 Descending FlightAware ADS-B
Sun 05:20:17 AM 30.4733 -97.7467 103° East 467 537 37,000  Level FlightAware ADS-B
Sun 05:20:18 AM 30.4728 -97.7441 103° East 467 537 37,000  Level FlightAware ADS-B
Sun 05:20:49 AM 30.4582 -97.6686 103° East 466 536 37,000  Level FlightAware ADS-B
Sun 05:20:52 AM 30.4569 -97.6618 103° East 466 536 37,000  Level FlightAware ADS-B
Sun 05:21:20 AM 30.4439 -97.5951 103° East 465 535 37,000  Level FlightAware ADS-B
Sun 05:21:23 AM 30.4426 -97.5884 103° East 464 534 37,000  Level FlightAware ADS-B
Sun 05:21:49 AM 30.4302 -97.5244 103° East 463 533 37,000  Level FlightAware ADS-B
Sun 05:21:56 AM 30.4268 -97.5073 103° East 462 532 37,000 -200 Level FlightAware ADS-B
Sun 05:22:19 AM 30.4157 -97.4507 103° East 463 533 36,900 -387 Descending FlightAware ADS-B
Sun 05:22:27 AM 30.4123 -97.4329 102° East 463 533 36,800 -885 Descending FlightAware ADS-B
Sun 05:23:20 AM 30.3869 -97.3035 103° East 467 537 36,000 -1,084 Descending FlightAware ADS-B
Sun 05:23:50 AM 30.3724 -97.2300 103° East 468 539 35,300 -1,400 Descending FlightAware ADS-B
Sun 05:24:20 AM 30.3581 -97.1574 103° East 464 534 34,600 -1,574 Descending FlightAware ADS-B
Sun 05:24:51 AM 30.3436 -97.0837 103° East 474 545 33,700 -2,703 Descending FlightAware ADS-B
Sun 05:25:51 AM 30.3133 -96.9331 103° East 479 551 30,500 -3,333 Descending FlightAware ADS-B
Sun 05:26:21 AM 30.2984 -96.8581 103° East 483 556 28,700 -4,101 Descending FlightAware ADS-B
Sun 05:27:10 AM 30.2730 -96.7345 104° East 493 567 25,100 -4,444 Descending FlightAware ADS-B
Sun 05:27:42 AM 30.2514 -96.6535 107° East 499 574 22,700 -3,968 Descending FlightAware ADS-B
Sun 05:28:12 AM 30.2307 -96.5782 108° East 473 544 21,000 -3,934 Descending FlightAware ADS-B
Sun 05:28:43 AM 30.2109 -96.5038 107° East 461 531 18,700 -4,174 Descending FlightAware ADS-B
Sun 05:29:44 AM 30.1749 -96.3664 107° East 432 497 14,600 -4,154 Descending FlightAware ADS-B
Sun 05:30:14 AM 30.1576 -96.3001 107° East 422 486 12,400 -3,100 Descending FlightAware ADS-B
Sun 05:30:44 AM 30.1414 -96.2384 107° East 381 438 11,500 -1,475 Descending FlightAware ADS-B
Sun 05:31:15 AM 30.1266 -96.1829 107° East 341 392 10,900 -1,180 Descending FlightAware ADS-B
Sun 05:31:45 AM 30.1135 -96.1334 107° East 310 357 10,300 -1,333 Descending FlightAware ADS-B
Sun 05:32:00 AM 30.1073 -96.1100 107° East 298 343 9,900 -1,600 Descending FlightAware ADS-B
Sun 05:32:15 AM 30.1012 -96.0874 107° East 291 335 9,500 -1,935 Descending FlightAware ADS-B
Sun 05:32:31 AM 30.0950 -96.0646 107° East 289 333 8,900 -2,516 Descending FlightAware ADS-B
Sun 05:32:46 AM 30.0890 -96.0421 107° East 291 335 8,200 -2,600 Descending FlightAware ADS-B
Sun 05:33:01 AM 30.0830 -96.0196 107° East 293 337 7,600 -2,400 Descending FlightAware ADS-B
Sun 05:33:16 AM 30.0771 -95.9967 107° East 295 339 7,000 -2,276 Descending FlightAware ADS-B
Sun 05:33:30 AM 30.0715 -95.9754 107° East 295 339 6,500 -1,800 Descending FlightAware ADS-B
Sun 05:33:46 AM 30.0654 -95.9529 107° East 295 339 6,100 -1,548 Descending FlightAware ADS-B
Sun 05:34:01 AM 30.0591 -95.9301 108° East 295 339 5,700 -1,448 Descending FlightAware ADS-B
Sun 05:34:15 AM 30.0534 -95.9088 107° East 289 333 5,400 -1,034 Descending FlightAware ADS-B
Sun 05:34:30 AM 30.0476 -95.8871 107° East 281 323 5,200 -1,000 Descending FlightAware ADS-B
Sun 05:34:45 AM 30.0419 -95.8657 107° East 276 318 4,900 -1,200 Descending FlightAware ADS-B
Sun 05:35:00 AM 30.0361 -95.8438 107° East 273 314 4,600 -1,355 Descending FlightAware ADS-B
Sun 05:35:16 AM 30.0304 -95.8230 108° East 270 311 4,200 -1,161 Descending FlightAware ADS-B
Sun 05:35:31 AM 30.0248 -95.8024 107° East 269 310 4,000 -581 Descending FlightAware ADS-B
Sun 05:35:47 AM 30.0188 -95.7802 107° East 256 295 3,900 -188 Descending FlightAware ADS-B
Sun 05:36:03 AM 30.0137 -95.7611 107° East 239 275 3,900 194 Level FlightAware ADS-B
Sun 05:36:18 AM 30.0088 -95.7429 107° East 232 267 4,000 200 Climbing FlightAware ADS-B
Sun 05:36:33 AM 30.0040 -95.7251 107° East 229 264 4,000  Level FlightAware ADS-B
Sun 05:36:48 AM 29.9992 -95.7073 107° East 229 264 4,000 -240 Level FlightAware ADS-B
Sun 05:36:58 AM 29.9962 -95.6961 107° East 230 265 3,900 -462 Descending FlightAware ADS-B
Sun 05:37:01 AM 29.9953 -95.6920 104° East 229 264 3,900  Level FlightAware ADS-B
Sun 05:37:05 AM 29.9946 -95.6877 101° East 229 264 3,900  Level FlightAware ADS-B
Sun 05:37:10 AM 29.9939 -95.6821 98° East 227 261 3,900  Level FlightAware ADS-B
Sun 05:37:17 AM 29.9933 -95.6733 94° East 222 255 3,900 273 Level FlightAware ADS-B
Sun 05:37:32 AM 29.9928 -95.6569 92° East 207 238 4,000 207 Climbing FlightAware ADS-B
Sun 05:37:46 AM 29.9928 -95.6414 90° East 197 227 4,000  Level FlightAware ADS-B
Sun 05:37:57 AM 29.9929 -95.6299 89° East 195 224 4,000  Level FlightAware ADS-B
Sun 05:38:05 AM 29.9929 -95.6218 90° East 193 222 4,000  Level FlightAware ADS-B
Sun 05:38:15 AM 29.9929 -95.6114 90° East 193 222 4,000 -240 Level FlightAware ADS-B
Sun 05:38:30 AM 29.9929 -95.5960 90° East 194 223 3,900 -545 Descending FlightAware ADS-B
Sun 05:38:48 AM 29.9930 -95.5770 90° East 195 224 3,700 -833 Descending FlightAware ADS-B
Sun 05:39:06 AM 29.9930 -95.5586 90° East 193 222 3,400 -1,000 Descending FlightAware ADS-B
Sun 05:39:18 AM 29.9930 -95.5469 90° East 191 220 3,200 -1,034 Descending FlightAware ADS-B
Sun 05:39:35 AM 29.9931 -95.5292 90° East 190 219 2,900 -1,091 Descending FlightAware ADS-B
Sun 05:39:51 AM 29.9931 -95.5135 90° East 188 216 2,600 -968 Descending FlightAware ADS-B
Sun 05:40:06 AM 29.9932 -95.4985 90° East 185 213 2,400 -938 Descending FlightAware ADS-B
Sun 05:40:23 AM 29.9932 -95.4818 90° East 182 209 2,100 -1,111 Descending FlightAware ADS-B
Sun 05:40:33 AM 29.9932 -95.4721 90° East 181 208 1,900 -857 Descending FlightAware ADS-B
Sun 05:40:51 AM 29.9932 -95.4552 90° East 168 193 1,700 -706 Descending FlightAware ADS-B
Sun 05:41:07 AM 29.9933 -95.4417 90° East 155 178 1,500 -774 Descending FlightAware ADS-B
Sun 05:41:22 AM 29.9933 -95.4301 90° East 137 158 1,300 -643 Descending FlightAware ADS-B
Sun 05:41:35 AM 29.9933 -95.4213 90° East 126 145 1,200 -750 Descending FlightAware ADS-B
Sun 05:41:46 AM 29.9933 -95.4142 90° East 123 142 1,000 -818 Descending FlightAware ADS-B
Sun 05:41:57 AM 29.9934 -95.4073 89° East 121 139 900 -462 Descending FlightAware ADS-B
Sun 05:42:12 AM 29.9934 -95.3974 90° East 121 139 800 -600 Descending FlightAware ADS-B
Sun 05:42:27 AM 29.9934 -95.3876 90° East 121 139 600 -720 Descending FlightAware ADS-B
Sun 05:42:37 AM 29.9934 -95.3816 90° East 121 139 500 -429 Descending FlightAware ADS-B
Sun 05:42:41 AM 29.9934 -95.3790 90° East 122 140 500 -600 Level FlightAware ADS-B
Sun 05:42:47 AM 29.9933 -95.3750 92° East 122 140 400 -720 Descending FlightAware ADS-B
Sun 05:43:06 AM 29.9934 -95.3628 89° East 129 148 200 -632 Descending FlightAware ADS-B
Sun 05:43:21 AM 29.9934 -95.3519 90° East 133 153 -800 Descending FlightAware ADS-B
Sun 05:43:40 AM 29.9934 -95.3398 90° East 94 108  Level FlightAware ADS-B

Login

Don't have an account? Register now (free) for customized features, flight alerts, and more!